Time;durP1;ratioP1;P1;durP2;ratioP2;P2;SDS_P1;SDS_P2;PMS_P1;PMS_P2;Temp;Humidity;BMP_temperature;BMP_pressure;BME280_temperature;BME280_humidity;BME280_pressure;Samples;Min_cycle;Max_cycle;Signal;HPM_P1;HPM_P2
2021/06/02 00:00:04;;;;;;;4.75;3.00;;;;;;;13.45;61.67;100192.47;4389495;32;34181;-88
2021/06/02 00:02:32;;;;;;;3.50;2.40;;;;;;;13.48;61.53;100187.03;4389262;32;35422;-87
2021/06/02 00:05:02;;;;;;;4.22;2.92;;;;;;;13.66;60.71;100184.38;4376600;32;35369;-88
2021/06/02 00:07:30;;;;;;;5.20;3.47;;;;;;;13.54;61.64;100194.66;4381801;32;33489;-88
2021/06/02 00:09:59;;;;;;;6.90;2.67;;;;;;;13.52;61.53;100196.50;4390690;32;34083;-88
2021/06/02 00:12:27;;;;;;;3.87;2.85;;;;;;;13.42;62.07;100191.75;4388610;32;35353;-85
2021/06/02 00:14:54;;;;;;;3.85;2.97;;;;;;;13.33;62.71;100195.69;4389009;32;33403;-86
2021/06/02 00:17:22;;;;;;;5.32;2.50;;;;;;;13.42;62.88;100187.28;4388745;32;33802;-85
2021/06/02 00:19:50;;;;;;;4.95;2.90;;;;;;;13.49;63.20;100185.22;4388956;32;33536;-88
2021/06/02 00:22:18;;;;;;;3.53;2.70;;;;;;;13.40;63.94;100189.19;4381089;32;35531;-88
2021/06/02 00:24:46;;;;;;;3.35;2.42;;;;;;;13.39;63.73;100186.59;4378083;32;34667;-88
2021/06/02 00:27:14;;;;;;;3.28;2.50;;;;;;;13.46;62.98;100190.66;4388462;32;33986;-88
2021/06/02 00:29:45;;;;;;;5.30;2.65;;;;;;;13.49;62.49;100191.38;4388546;32;33927;-88
2021/06/02 00:32:14;;;;;;;8.75;3.62;;;;;;;13.43;62.60;100194.31;4377673;32;33489;-88
2021/06/02 00:34:43;;;;;;;5.10;2.65;;;;;;;13.46;62.86;100193.31;4377328;32;33826;-88
2021/06/02 00:37:10;;;;;;;5.37;2.87;;;;;;;13.55;62.69;100185.75;4389631;32;33416;-88
2021/06/02 00:39:39;;;;;;;3.37;2.78;;;;;;;13.66;62.58;100181.72;4390574;32;35063;-88
2021/06/02 00:42:29;;;;;;;3.35;2.83;;;;;;;13.55;63.37;100176.94;4389211;32;33723;-88
2021/06/02 00:44:58;;;;;;;4.32;2.62;;;;;;;13.70;62.70;100178.81;4384061;32;34952;-89
2021/06/02 00:47:26;;;;;;;6.72;2.80;;;;;;;13.87;61.78;100180.63;4382926;32;33267;-87
2021/06/02 00:49:54;;;;;;;4.45;3.08;;;;;;;14.13;60.96;100175.75;4389682;32;34038;-87
2021/06/02 00:52:21;;;;;;;4.53;3.08;;;;;;;13.94;61.67;100178.50;4376577;32;33559;-87
2021/06/02 00:54:50;;;;;;;3.37;2.45;;;;;;;13.69;62.90;100178.91;4388144;32;34436;-87
2021/06/02 00:57:19;;;;;;;3.30;3.00;;;;;;;13.64;63.31;100176.50;4388427;32;33028;-87
2021/06/02 01:00:04;;;;;;;4.85;2.80;;;;;;;13.62;63.60;100183.66;4388083;32;35100;-87
2021/06/02 01:02:34;;;;;;;4.82;2.87;;;;;;;13.69;63.67;100194.84;4387551;32;33778;-87
2021/06/02 01:05:03;;;;;;;4.60;2.97;;;;;;;13.78;63.16;100189.06;4375710;32;34568;-87
2021/06/02 01:07:34;;;;;;;3.40;2.83;;;;;;;13.97;62.18;100192.50;4378640;32;33793;-87
2021/06/02 01:10:02;;;;;;;4.97;2.70;;;;;;;13.76;62.79;100194.44;4390526;32;34554;-87
2021/06/02 01:12:31;;;;;;;4.50;2.28;;;;;;;13.65;63.56;100203.88;4388091;32;34705;-87
2021/06/02 01:14:59;;;;;;;4.55;3.17;;;;;;;13.81;63.33;100195.09;4389746;32;33682;-87
2021/06/02 01:17:30;;;;;;;5.97;3.10;;;;;;;13.81;63.59;100200.41;4378231;32;34386;-89
2021/06/02 01:20:00;;;;;;;6.90;3.22;;;;;;;13.75;63.98;100194.53;4375931;32;33935;-90
2021/06/02 01:22:33;;;;;;;3.35;2.80;;;;;;;13.83;63.75;100195.84;4378171;32;33556;-90
2021/06/02 01:25:18;;;;;;;6.45;3.35;;;;;;;13.85;63.80;100193.09;4390587;32;34559;-89
2021/06/02 01:27:46;;;;;;;3.80;3.12;;;;;;;13.99;63.52;100198.56;4390381;32;33837;-89
2021/06/02 01:30:19;;;;;;;5.10;2.62;;;;;;;13.96;63.59;100197.91;4378187;32;34579;-89
2021/06/02 01:33:04;;;;;;;6.15;3.08;;;;;;;14.11;63.11;100196.25;4390608;32;34285;-90
2021/06/02 01:35:50;;;;;;;6.57;2.83;;;;;;;14.07;63.22;100196.37;4390191;32;35270;-89
2021/06/02 01:38:22;;;;;;;3.45;2.78;;;;;;;14.08;63.03;100197.25;4387754;32;33941;-89
2021/06/02 01:40:59;;;;;;;4.18;2.47;;;;;;;14.04;63.59;100195.69;4390539;32;33304;-89
2021/06/02 01:43:46;;;;;;;4.07;2.33;;;;;;;14.02;63.96;100197.56;4377334;32;34461;-89
2021/06/02 01:46:51;;;;;;;8.77;2.92;;;;;;;14.03;63.99;100202.78;4377977;32;35024;-89
2021/06/02 01:49:56;;;;;;;3.58;3.08;;;;;;;14.13;63.46;100197.00;4382046;32;33559;-89
2021/06/02 01:53:01;;;;;;;5.75;2.90;;;;;;;14.02;63.30;100198.44;4377840;32;33699;-88
2021/06/02 01:55:51;;;;;;;5.97;2.50;;;;;;;13.95;63.56;100194.34;4377839;32;34825;-87
2021/06/02 01:58:50;;;;;;;5.97;2.65;;;;;;;14.06;63.58;100194.69;4352812;32;35461;-87
2021/06/02 02:01:47;;;;;;;3.42;2.62;;;;;;;14.18;63.25;100192.31;4387704;32;33602;-87
2021/06/02 02:04:51;;;;;;;5.43;2.80;;;;;;;14.24;63.05;100189.31;4402491;32;35538;-87
2021/06/02 02:07:44;;;;;;;2.30;2.00;;;;;;;14.10;63.44;100184.75;4375502;32;34698;-88
2021/06/02 02:10:33;;;;;;;5.20;2.58;;;;;;;14.25;62.76;100183.94;4370126;32;35500;-91
2021/06/02 02:13:27;;;;;;;2.40;2.03;;;;;;;14.15;63.29;100197.78;4378869;32;33459;-91
2021/06/02 02:16:00;;;;;;;4.37;2.70;;;;;;;14.29;63.15;100200.56;4378481;32;33930;-91
2021/06/02 02:18:48;;;;;;;8.45;2.42;;;;;;;14.22;63.45;100199.19;4378480;32;34557;-91
2021/06/02 02:21:42;;;;;;;5.18;2.92;;;;;;;14.16;63.93;100204.81;4366270;32;34765;-91
2021/06/02 02:24:11;;;;;;;4.30;2.70;;;;;;;14.34;63.19;100199.41;4378202;32;33336;-90
2021/06/02 02:27:00;;;;;;;3.37;2.45;;;;;;;14.26;63.41;100196.28;4365701;32;34764;-90
2021/06/02 02:29:57;;;;;;;5.90;2.67;;;;;;;14.25;63.25;100199.87;4365921;32;34467;-90
2021/06/02 02:32:52;;;;;;;7.55;2.78;;;;;;;14.19;63.80;100194.88;4365710;32;34016;-90
2021/06/02 02:35:31;;;;;;;4.32;2.90;;;;;;;14.36;63.07;100191.34;4353606;32;34462;-90
2021/06/02 02:38:19;;;;;;;5.87;2.65;;;;;;;14.21;63.43;100195.69;4377878;32;34429;-90
2021/06/02 02:41:17;;;;;;;3.35;2.62;;;;;;;14.16;63.55;100188.88;4378310;32;32735;-89
2021/06/02 02:44:13;;;;;;;4.37;3.03;;;;;;;14.25;63.23;100193.72;4352847;32;35697;-88
2021/06/02 02:47:00;;;;;;;5.72;2.75;;;;;;;14.18;63.32;100192.31;4389195;32;34170;-89
2021/06/02 02:49:50;;;;;;;3.83;2.67;;;;;;;14.18;63.01;100192.31;4381942;32;34383;-91
2021/06/02 02:52:46;;;;;;;4.03;2.80;;;;;;;14.07;63.06;100191.06;4375071;32;34758;-90
2021/06/02 02:55:27;;;;;;;4.28;3.15;;;;;;;14.20;62.41;100185.13;4372886;32;34872;-89
2021/06/02 02:58:06;;;;;;;5.97;3.00;;;;;;;14.06;62.72;100192.03;4384587;32;33433;-89
2021/06/02 03:00:43;;;;;;;3.25;2.78;;;;;;;13.94;63.08;100205.91;4373098;32;33427;-89
2021/06/02 03:03:29;;;;;;;5.00;3.10;;;;;;;14.05;62.62;100203.59;4374994;32;35312;-89
2021/06/02 03:06:25;;;;;;;4.78;2.95;;;;;;;14.06;62.50;100207.94;4359337;32;34559;-90
2021/06/02 03:09:10;;;;;;;3.03;2.75;;;;;;;14.08;62.10;100213.19;4375799;32;33380;-91
2021/06/02 03:11:46;;;;;;;5.90;3.03;;;;;;;14.02;61.95;100214.34;4374510;32;35607;-90
2021/06/02 03:14:19;;;;;;;5.22;3.03;;;;;;;13.86;62.11;100218.72;4373962;32;35945;-89
2021/06/02 03:16:56;;;;;;;9.25;2.90;;;;;;;13.90;61.81;100220.28;4387308;32;35211;-90
2021/06/02 03:19:55;;;;;;;3.25;2.58;;;;;;;13.90;61.85;100220.28;4391920;32;33512;-90
2021/06/02 03:22:27;;;;;;;4.60;2.70;;;;;;;13.67;62.87;100233.84;4359545;32;34205;-90
2021/06/02 03:25:10;;;;;;;6.55;2.90;;;;;;;13.67;63.03;100233.84;4378036;32;34490;-89
2021/06/02 03:27:59;;;;;;;4.80;3.10;;;;;;;13.71;62.51;100238.91;4386988;32;33194;-90
2021/06/02 03:30:42;;;;;;;5.07;2.92;;;;;;;13.50;62.60;100238.19;4399733;32;31805;-89
2021/06/02 03:33:48;;;;;;;4.62;2.95;;;;;;;13.59;62.25;100239.53;4379545;32;34540;-90
2021/06/02 03:36:58;;;;;;;5.68;3.12;;;;;;;13.67;62.05;100245.31;4374644;32;35333;-91
2021/06/02 03:39:45;;;;;;;5.80;3.28;;;;;;;13.61;62.41;100244.75;4370460;32;34414;-91
2021/06/02 03:42:16;;;;;;;7.53;3.53;;;;;;;13.40;63.29;100250.19;4385079;32;33982;-91
2021/06/02 03:45:24;;;;;;;4.05;3.35;;;;;;;13.47;62.97;100248.94;4382907;32;34309;-90
2021/06/02 03:48:26;;;;;;;5.05;3.35;;;;;;;13.58;62.66;100256.41;4321611;33;35517;-91
2021/06/02 03:51:38;;;;;;;3.85;3.03;;;;;;;13.51;62.52;100254.97;4394827;32;34583;-92
2021/06/02 03:55:21;;;;;;;7.60;3.08;;;;;;;13.49;62.93;100260.34;4425353;32;32748;-91
2021/06/02 03:58:32;;;;;;;6.75;3.12;;;;;;;13.43;62.85;100262.44;4353617;32;34596;-92
2021/06/02 04:01:23;;;;;;;4.93;3.08;;;;;;;13.55;62.49;100265.34;4361580;32;36958;-92
2021/06/02 04:04:40;;;;;;;5.72;3.12;;;;;;;13.42;63.26;100261.56;4369982;32;34180;-90
2021/06/02 04:07:41;;;;;;;4.35;3.05;;;;;;;13.42;63.57;100266.88;4375656;32;34311;-90
2021/06/02 04:10:35;;;;;;;5.28;3.70;;;;;;;13.45;63.84;100266.75;4382026;32;34624;-92
2021/06/02 04:13:27;;;;;;;6.65;3.47;;;;;;;13.64;63.33;100273.81;4363801;32;34328;-90
2021/06/02 04:16:19;;;;;;;7.55;3.28;;;;;;;13.63;63.53;100280.06;4358757;32;35818;-90
2021/06/02 04:19:11;;;;;;;7.05;3.20;;;;;;;13.67;63.30;100281.59;4362610;32;33846;-90
2021/06/02 04:22:05;;;;;;;17.02;3.75;;;;;;;13.63;63.36;100280.06;4396624;32;33552;-90
2021/06/02 04:24:35;;;;;;;6.50;3.28;;;;;;;13.77;63.09;100278.44;4396801;32;33584;-91
2021/06/02 04:27:08;;;;;;;11.68;4.15;;;;;;;14.03;62.49;100279.78;4400498;32;31750;-91
2021/06/02 04:29:37;;;;;;;10.40;4.12;;;;;;;14.13;62.53;100285.50;4386582;32;35157;-90
2021/06/02 04:32:07;;;;;;;10.45;4.15;;;;;;;14.06;62.87;100284.97;4390573;32;33067;-91
2021/06/02 04:34:35;;;;;;;6.65;4.20;;;;;;;13.88;63.91;100288.53;4390460;32;33865;-91
2021/06/02 04:37:06;;;;;;;14.52;3.97;;;;;;;13.98;63.40;100297.75;4388400;32;34164;-90
2021/06/02 04:39:38;;;;;;;12.20;4.43;;;;;;;14.07;63.39;100286.66;4399640;32;32306;-90
2021/06/02 04:42:07;;;;;;;14.63;4.00;;;;;;;14.02;63.47;100291.34;4396865;32;34630;-90
2021/06/02 04:44:36;;;;;;;8.52;4.15;;;;;;;14.09;63.48;100290.09;4396362;32;35339;-90
2021/06/02 04:47:05;;;;;;;7.65;3.90;;;;;;;14.37;62.54;100286.03;4384192;32;34501;-91
2021/06/02 04:49:58;;;;;;;7.15;3.95;;;;;;;14.53;62.11;100294.97;4385188;32;33728;-90
2021/06/02 04:52:32;;;;;;;4.70;3.45;;;;;;;14.44;62.80;100294.56;4398230;32;34651;-90
2021/06/02 04:55:31;;;;;;;7.80;3.60;;;;;;;14.60;61.87;100296.38;4409923;32;34235;-91
2021/06/02 04:58:14;;;;;;;7.20;4.12;;;;;;;14.80;61.11;100302.44;4395615;32;34379;-89
2021/06/02 05:01:07;;;;;;;8.38;4.62;;;;;;;14.85;60.59;100321.66;4397663;32;33774;-89
2021/06/02 05:03:41;;;;;;;4.75;3.45;;;;;;;14.75;61.25;100315.09;4396740;32;33093;-90
2021/06/02 05:06:33;;;;;;;10.55;3.70;;;;;;;14.47;61.83;100315.66;4395903;32;34413;-88
2021/06/02 05:09:07;;;;;;;5.53;3.42;;;;;;;14.71;60.43;100313.53;4397084;32;34141;-89
2021/06/02 05:12:06;;;;;;;8.73;3.37;;;;;;;14.71;60.41;100314.41;4397618;32;32691;-87
2021/06/02 05:15:28;;;;;;;4.32;3.42;;;;;;;14.78;60.74;100306.97;4396487;32;31524;-89
2021/06/02 05:18:15;;;;;;;4.10;3.37;;;;;;;15.04;59.36;100306.41;4411552;32;35695;-89
2021/06/02 05:24:12;;;;;;;8.32;3.47;;;;;;;15.29;59.23;100311.28;4390998;32;34815;-91
2021/06/02 05:27:15;;;;;;;8.48;3.67;;;;;;;15.23;59.84;100311.59;4404212;32;35503;-92
2021/06/02 05:30:18;;;;;;;6.03;3.70;;;;;;;15.13;60.41;100317.50;4404399;32;34198;-92
2021/06/02 05:33:00;;;;;;;6.55;3.65;;;;;;;15.37;60.30;100317.03;4406691;32;34116;-92
2021/06/02 05:36:10;;;;;;;9.93;3.40;;;;;;;15.44;59.89;100314.91;4396061;32;33660;-92
2021/06/02 05:39:16;;;;;;;8.52;3.47;;;;;;;15.60;59.14;100310.41;4391079;32;34228;-91
2021/06/02 05:41:54;;;;;;;8.85;3.50;;;;;;;15.94;57.56;100313.84;4403942;32;32117;-92
2021/06/02 05:44:56;;;;;;;11.50;3.55;;;;;;;16.09;56.53;100317.44;4397624;32;35333;-92
2021/06/02 05:47:44;;;;;;;6.93;4.15;;;;;;;15.99;56.64;100310.94;4392279;32;34047;-92
2021/06/02 05:51:03;;;;;;;9.43;3.67;;;;;;;15.98;57.45;100314.53;4391736;32;34014;-91
2021/06/02 05:53:48;;;;;;;8.07;4.47;;;;;;;16.20;56.09;100312.34;4394781;32;34804;-91
2021/06/02 05:56:29;;;;;;;7.78;3.40;;;;;;;16.23;57.04;100308.63;4404748;32;33558;-87
2021/06/02 05:59:31;;;;;;;5.00;2.85;;;;;;;16.48;55.43;100300.06;4404335;32;35234;-91
2021/06/02 06:02:09;;;;;;;7.90;3.40;;;;;;;16.51;54.32;100305.19;4401414;32;34279;-92
2021/06/02 06:04:43;;;;;;;6.03;3.42;;;;;;;16.49;54.97;100313.28;4401036;32;35373;-92
2021/06/02 06:07:40;;;;;;;7.97;3.45;;;;;;;16.79;55.10;100312.41;4401097;32;33993;-92
2021/06/02 06:10:25;;;;;;;8.68;4.37;;;;;;;16.95;54.92;100322.97;4359373;32;33412;-91
2021/06/02 06:12:56;;;;;;;9.27;3.78;;;;;;;17.36;51.67;100312.38;4401005;32;34998;-91
2021/06/02 06:16:28;;;;;;;14.90;3.75;;;;;;;17.06;50.69;100318.69;4434405;32;33406;-93
2021/06/02 06:19:36;;;;;;;6.53;3.92;;;;;;;17.29;50.80;100321.75;4425194;32;33681;-92
2021/06/02 06:23:09;;;;;;;4.05;3.22;;;;;;;17.81;47.30;100326.44;4412632;32;32150;-92
2021/06/02 06:25:51;;;;;;;;;;;;;;;17.97;46.55;100326.28;4341418;32;34446;-93
2021/06/02 06:28:43;;;;;;;8.00;3.67;;;;;;;18.00;48.18;100326.94;4336695;33;33859;-91
2021/06/02 06:31:28;;;;;;;9.73;3.67;;;;;;;17.78;49.76;100332.81;4325216;33;33572;-91
2021/06/02 06:34:25;;;;;;;6.82;2.80;;;;;;;17.85;46.88;100330.59;4361540;32;34111;-92
2021/06/02 06:36:57;;;;;;;3.20;2.25;;;;;;;18.26;46.09;100335.03;4366331;32;34482;-91
2021/06/02 06:39:59;;;;;;;7.12;2.67;;;;;;;18.33;44.02;100328.31;4387438;32;33370;-91
2021/06/02 06:42:51;;;;;;;5.22;2.50;;;;;;;18.33;45.49;100333.69;4358089;32;33639;-91
2021/06/02 06:45:33;;;;;;;5.03;3.00;;;;;;;18.42;44.50;100336.59;4378058;32;33171;-92
2021/06/02 06:48:22;;;;;;;8.02;2.45;;;;;;;18.33;45.39;100328.31;4354429;32;33908;-91
2021/06/02 06:51:20;;;;;;;3.85;2.35;;;;;;;18.73;43.38;100333.66;4374973;32;34609;-91
2021/06/02 06:54:12;;;;;;;9.93;2.87;;;;;;;18.65;44.13;100326.97;4366558;32;34168;-91
2021/06/02 06:57:00;;;;;;;;;;;;;;;18.90;44.53;100325.31;4371566;32;34488;-91
2021/06/02 06:59:43;;;;;;;10.00;3.30;;;;;;;19.23;41.32;100323.88;4394341;32;33990;-90
2021/06/02 07:02:14;;;;;;;6.05;2.95;;;;;;;18.94;41.62;100326.78;4416244;32;35408;-91
2021/06/02 07:04:59;;;;;;;3.70;2.50;;;;;;;19.37;41.32;100316.59;4407116;32;35412;-91
2021/06/02 07:07:47;;;;;;;6.65;2.60;;;;;;;19.00;40.44;100326.38;4395682;32;34111;-89
2021/06/02 07:10:16;;;;;;;3.47;2.92;;;;;;;19.29;38.56;100323.47;4416037;32;34118;-89
2021/06/02 07:12:46;;;;;;;3.85;2.53;;;;;;;19.07;38.27;100327.66;4413513;32;34388;-93
2021/06/02 07:15:17;;;;;;;3.90;2.03;;;;;;;18.78;40.48;100331.50;4404934;32;33618;-88
2021/06/02 07:17:48;;;;;;;4.90;2.03;;;;;;;18.91;39.60;100325.19;4420046;32;32846;-88
2021/06/02 07:20:22;;;;;;;5.90;2.70;;;;;;;18.55;40.48;100331.22;4419231;32;33949;-88
2021/06/02 07:22:52;;;;;;;3.08;2.03;;;;;;;18.67;41.02;100329.56;4406132;32;34252;-88
2021/06/02 07:25:24;;;;;;;3.67;2.00;;;;;;;18.97;40.75;100337.28;4407436;32;36872;-88
2021/06/02 07:27:53;;;;;;;9.25;2.37;;;;;;;19.11;38.18;100329.16;4414986;32;33914;-88
2021/06/02 07:30:25;;;;;;;4.60;2.00;;;;;;;19.31;38.70;100338.44;4405755;32;35482;-89
2021/06/02 07:32:54;;;;;;;6.65;2.30;;;;;;;19.51;37.77;100331.63;4418195;32;33498;-88
2021/06/02 07:35:23;;;;;;;3.37;2.03;;;;;;;19.39;37.06;100338.75;4423177;32;33558;-88
2021/06/02 07:37:52;;;;;;;2.97;1.83;;;;;;;19.65;38.93;100344.94;4415634;32;35143;-89
2021/06/02 07:40:20;;;;;;;8.73;1.95;;;;;;;20.10;38.52;100339.81;4419728;32;34296;-88
2021/06/02 07:42:48;;;;;;;6.22;2.08;;;;;;;20.55;36.53;100340.00;4409814;32;34705;-88
2021/06/02 07:45:17;;;;;;;4.25;1.75;;;;;;;20.66;36.60;100342.75;4405834;32;33951;-88
2021/06/02 07:47:45;;;;;;;3.00;1.87;;;;;;;20.11;36.29;100344.22;4420420;32;33753;-88
2021/06/02 07:50:13;;;;;;;4.10;2.10;;;;;;;20.38;36.34;100348.47;4412609;32;34074;-89
2021/06/02 07:52:41;;;;;;;8.75;4.43;;;;;;;20.69;38.46;100339.81;4417675;32;34316;-89
2021/06/02 07:55:10;;;;;;;4.85;2.35;;;;;;;20.37;36.18;100346.78;4405161;32;34665;-88
2021/06/02 07:57:39;;;;;;;3.67;2.55;;;;;;;20.74;35.66;100343.97;4426477;32;34104;-89
2021/06/02 08:00:08;;;;;;;2.17;1.98;;;;;;;20.81;37.06;100350.59;4422564;32;34226;-90
2021/06/02 08:02:39;;;;;;;5.55;2.40;;;;;;;20.37;37.60;100349.47;4414052;32;34118;-89
2021/06/02 08:05:09;;;;;;;8.25;2.58;;;;;;;20.66;37.41;100342.75;4397213;32;35710;-88
2021/06/02 08:07:42;;;;;;;7.53;2.30;;;;;;;20.31;36.10;100348.06;4416786;32;31994;-89
2021/06/02 08:10:12;;;;;;;3.50;2.12;;;;;;;20.38;37.62;100352.00;4408907;32;34105;-88
2021/06/02 08:12:41;;;;;;;6.75;3.45;;;;;;;20.46;38.21;100340.69;4418071;32;34901;-89
2021/06/02 08:15:11;;;;;;;6.82;2.20;;;;;;;20.50;35.97;100352.06;4416498;32;33042;-89
2021/06/02 08:17:43;;;;;;;6.85;2.42;;;;;;;20.23;38.06;100349.66;4411138;32;33137;-89
2021/06/02 08:20:12;;;;;;;5.05;2.53;;;;;;;20.72;36.89;100354.84;4418972;32;34651;-89
2021/06/02 08:22:41;;;;;;;7.07;2.60;;;;;;;20.56;36.96;100347.12;4413790;32;34255;-88
2021/06/02 08:25:14;;;;;;;9.70;2.58;;;;;;;20.68;36.40;100335.41;4425850;32;34455;-88
2021/06/02 08:27:44;;;;;;;5.65;2.62;;;;;;;21.13;37.13;100351.59;4400611;32;33619;-89
2021/06/02 08:30:13;;;;;;;6.22;2.00;;;;;;;21.26;34.08;100354.16;4413479;32;33980;-88
2021/06/02 08:32:41;;;;;;;6.55;2.22;;;;;;;21.42;34.82;100354.69;4409297;32;35628;-88
2021/06/02 08:35:10;;;;;;;8.38;2.25;;;;;;;21.33;33.27;100358.13;4423636;32;32586;-88
2021/06/02 08:37:40;;;;;;;5.55;2.12;;;;;;;21.32;35.17;100353.72;4420605;32;33240;-88
2021/06/02 08:40:09;;;;;;;4.75;2.22;;;;;;;20.87;37.16;100361.69;4402327;32;33840;-88
2021/06/02 08:42:47;;;;;;;4.95;1.90;;;;;;;21.61;35.95;100345.16;4418217;32;33806;-89
2021/06/02 08:45:17;;;;;;;5.75;2.45;;;;;;;22.18;34.43;100350.28;4411534;32;33713;-89
2021/06/02 08:47:48;;;;;;;5.75;2.03;;;;;;;21.81;33.85;100347.06;4387945;32;34150;-89
2021/06/02 08:50:19;;;;;;;3.13;2.13;;;;;;;21.60;32.73;100354.16;4416508;32;33807;-88
2021/06/02 08:52:49;;;;;;;7.93;2.80;;;;;;;21.93;33.18;100346.06;4413852;32;33862;-88
2021/06/02 08:55:19;;;;;;;5.32;2.35;;;;;;;22.09;35.14;100348.31;4419814;32;33058;-88
2021/06/02 08:57:49;;;;;;;3.58;2.30;;;;;;;22.41;32.60;100345.66;4409085;32;34038;-89
2021/06/02 09:00:20;;;;;;;6.55;1.85;;;;;;;22.30;32.45;100350.22;4401954;32;34132;-89
2021/06/02 09:02:57;;;;;;;4.25;2.25;;;;;;;22.48;33.69;100346.84;4412218;32;33690;-88
2021/06/02 09:05:25;;;;;;;16.60;2.78;;;;;;;22.35;31.37;100343.47;4414010;32;34441;-89
2021/06/02 09:07:54;;;;;;;8.95;2.55;;;;;;;22.23;33.54;100340.00;4414844;32;32940;-90
2021/06/02 09:10:24;;;;;;;5.20;2.30;;;;;;;22.81;32.86;100338.72;4416716;32;34365;-89
2021/06/02 09:12:58;;;;;;;7.57;2.87;;;;;;;22.75;32.80;100343.66;4415359;32;34157;-88
2021/06/02 09:15:34;;;;;;;5.45;2.33;;;;;;;22.93;34.46;100343.94;4407860;32;35675;-89
2021/06/02 09:18:05;;;;;;;9.80;2.55;;;;;;;23.39;32.67;100337.19;4402540;32;33185;-89
2021/06/02 09:20:44;;;;;;;3.67;2.15;;;;;;;23.00;33.27;100345.09;4421998;32;33666;-88
2021/06/02 09:23:32;;;;;;;7.05;2.20;;;;;;;23.39;31.16;100330.94;4419765;32;33849;-89
2021/06/02 09:26:18;;;;;;;4.90;2.08;;;;;;;23.47;30.89;100333.81;4406034;32;34267;-90
2021/06/02 09:28:50;;;;;;;3.58;2.33;;;;;;;23.75;30.44;100332.22;4415707;32;34219;-90
2021/06/02 09:31:36;;;;;;;8.30;2.62;;;;;;;23.61;31.16;100332.59;4415785;32;34824;-88
2021/06/02 09:34:14;;;;;;;5.50;2.10;;;;;;;23.88;28.69;100326.56;4423536;32;34281;-88
2021/06/02 09:36:45;;;;;;;4.40;3.00;;;;;;;23.61;29.67;100330.75;4417852;32;32393;-88
2021/06/02 09:39:18;;;;;;;3.47;2.40;;;;;;;23.68;29.51;100326.53;4391738;32;35398;-89
2021/06/02 09:41:47;;;;;;;4.00;1.95;;;;;;;23.44;30.82;100324.16;4400218;32;34613;-90
2021/06/02 09:44:25;;;;;;;4.53;2.10;;;;;;;23.57;31.11;100323.91;4420988;32;34521;-90
2021/06/02 09:47:01;;;;;;;5.05;1.77;;;;;;;23.68;33.41;100321.13;4387010;32;33635;-89
2021/06/02 09:49:47;;;;;;;3.87;2.17;;;;;;;24.12;34.29;100315.34;4397365;32;33019;-90
2021/06/02 09:52:16;;;;;;;5.12;2.08;;;;;;;24.43;31.32;100316.09;4416823;32;34666;-90
2021/06/02 09:55:10;;;;;;;7.72;2.12;;;;;;;23.81;28.98;100320.03;4408962;32;34682;-90
2021/06/02 09:57:47;;;;;;;4.37;1.80;;;;;;;23.96;29.20;100318.63;4424263;32;35396;-90
2021/06/02 10:00:41;;;;;;;3.33;1.80;;;;;;;23.89;28.54;100304.00;4394238;32;33885;-91
2021/06/02 10:03:18;;;;;;;4.15;2.60;;;;;;;24.12;28.13;100308.16;4410240;32;34239;-90
2021/06/02 10:05:51;;;;;;;4.15;2.10;;;;;;;24.85;28.57;100300.41;4407662;32;34831;-89
2021/06/02 10:08:33;;;;;;;5.57;2.28;;;;;;;24.39;29.73;100299.34;4408739;32;33679;-88
2021/06/02 10:11:13;;;;;;;6.80;2.90;;;;;;;24.75;27.21;100299.56;4415161;32;33470;-88
2021/06/02 10:13:41;;;;;;;2.35;1.58;;;;;;;24.68;26.62;100295.75;4405415;32;35428;-88
2021/06/02 10:16:09;;;;;;;4.93;2.42;;;;;;;24.64;26.97;100299.72;4412958;32;35754;-89
2021/06/02 10:18:39;;;;;;;5.00;1.95;;;;;;;23.92;26.13;100301.00;4395156;32;34193;-88
2021/06/02 10:21:13;;;;;;;3.05;1.55;;;;;;;23.92;28.00;100292.91;4405519;32;33951;-92
2021/06/02 10:23:43;;;;;;;8.38;3.15;;;;;;;24.26;29.64;100293.38;4359194;32;34277;-92
2021/06/02 10:26:14;;;;;;;4.82;2.00;;;;;;;24.13;29.22;100293.66;4394078;32;34659;-85
2021/06/02 10:28:43;;;;;;;3.40;2.03;;;;;;;24.26;28.73;100294.22;4395642;32;34197;-86
2021/06/02 10:31:13;;;;;;;6.68;2.15;;;;;;;24.98;26.76;100294.69;4408519;32;34185;-85
2021/06/02 10:33:41;;;;;;;9.23;2.45;;;;;;;25.40;24.68;100294.22;4409850;32;34003;-87
2021/06/02 10:36:10;;;;;;;3.15;1.98;;;;;;;24.96;28.20;100293.97;4407116;32;34363;-87
2021/06/02 10:38:46;;;;;;;5.57;2.03;;;;;;;24.69;26.48;100294.75;4417310;32;33885;-88
2021/06/02 10:41:17;;;;;;;5.90;1.60;;;;;;;24.81;27.60;100293.59;4401071;32;33986;-87
2021/06/02 10:43:48;;;;;;;2.70;1.85;;;;;;;25.77;29.24;100292.31;4412944;32;33901;-87
2021/06/02 10:46:21;;;;;;;5.87;2.50;;;;;;;26.00;26.43;100290.00;4406586;32;34682;-87
2021/06/02 10:48:54;;;;;;;3.60;2.25;;;;;;;26.38;27.19;100295.25;4410936;32;32953;-87
2021/06/02 10:51:28;;;;;;;5.30;2.25;;;;;;;26.40;25.52;100288.69;4402352;32;32682;-87
2021/06/02 10:54:35;;;;;;;7.60;2.97;;;;;;;26.33;24.25;100293.00;4410691;32;34436;-87
2021/06/02 10:57:08;;;;;;;3.85;2.12;;;;;;;25.61;24.86;100291.25;4396196;32;32807;-86
2021/06/02 10:59:43;;;;;;;2.55;2.03;;;;;;;25.73;25.22;100290.03;4388092;32;34432;-86
2021/06/02 11:02:19;;;;;;;10.27;2.72;;;;;;;25.85;25.07;100282.59;4408312;32;33611;-87
2021/06/02 11:04:56;;;;;;;5.68;2.53;;;;;;;25.30;25.58;100294.25;4404220;32;35426;-87
2021/06/02 11:07:29;;;;;;;2.53;1.90;;;;;;;25.66;26.93;100284.41;4409205;32;34206;-86
2021/06/02 11:10:16;;;;;;;10.43;2.45;;;;;;;26.21;25.14;100283.44;4405840;32;34446;-87
2021/06/02 11:12:50;;;;;;;3.75;1.83;;;;;;;25.96;28.15;100285.06;4411300;32;33631;-86
2021/06/02 11:15:30;;;;;;;4.20;2.30;;;;;;;26.05;27.67;100276.03;4386073;32;34032;-87
2021/06/02 11:18:11;;;;;;;4.30;2.00;;;;;;;25.95;24.80;100277.94;4401358;32;35232;-89
2021/06/02 11:20:43;;;;;;;8.70;2.85;;;;;;;25.69;27.02;100289.50;4411732;32;32701;-89
2021/06/02 11:23:15;;;;;;;4.47;2.47;;;;;;;25.83;24.83;100287.28;4402149;32;35393;-89
2021/06/02 11:25:44;;;;;;;3.85;2.08;;;;;;;25.62;25.61;100293.81;4381835;32;35649;-89
2021/06/02 11:28:41;;;;;;;2.78;2.42;;;;;;;25.20;25.67;100296.16;4399149;32;34533;-88
2021/06/02 11:31:24;;;;;;;3.15;2.45;;;;;;;24.77;26.85;100293.00;4389879;32;34493;-89
2021/06/02 11:33:53;;;;;;;2.85;2.37;;;;;;;24.42;26.96;100298.22;4412067;32;34152;-88
2021/06/02 11:36:21;;;;;;;3.75;2.37;;;;;;;24.14;29.98;100292.66;4393506;32;33783;-88
2021/06/02 11:38:49;;;;;;;5.60;2.58;;;;;;;24.26;29.15;100305.03;4416063;32;33723;-89
2021/06/02 11:41:16;;;;;;;3.97;1.83;;;;;;;24.13;29.75;100296.34;4412941;32;33679;-89
2021/06/02 11:43:59;;;;;;;5.22;2.87;;;;;;;23.99;29.40;100294.06;4407982;32;34610;-88
2021/06/02 11:46:47;;;;;;;8.75;3.15;;;;;;;24.07;28.58;100296.03;4406705;32;34694;-88
2021/06/02 11:49:36;;;;;;;7.28;2.10;;;;;;;24.03;29.31;100298.19;4414213;32;34592;-88
2021/06/02 11:52:10;;;;;;;3.62;2.28;;;;;;;23.83;30.06;100297.31;4388136;32;35309;-89
2021/06/02 11:55:05;;;;;;;3.60;2.20;;;;;;;23.84;29.83;100299.03;4414477;32;32877;-89
2021/06/02 11:57:36;;;;;;;3.92;3.00;;;;;;;23.67;31.62;100300.56;4384054;32;34236;-89
2021/06/02 12:00:14;;;;;;;4.75;2.10;;;;;;;24.05;29.20;100300.75;4402219;32;35519;-89
2021/06/02 12:02:51;;;;;;;3.60;2.17;;;;;;;24.16;30.03;100296.03;4401661;32;34619;-89
2021/06/02 12:05:46;;;;;;;7.93;2.60;;;;;;;24.10;28.47;100288.53;4395013;32;33946;-89
2021/06/02 12:08:16;;;;;;;2.55;1.77;;;;;;;24.06;29.97;100292.50;4403382;32;34328;-89
2021/06/02 12:10:48;;;;;;;5.05;2.62;;;;;;;23.85;29.63;100299.88;4407492;32;33123;-90
2021/06/02 12:13:26;;;;;;;6.53;2.33;;;;;;;23.95;29.67;100300.75;4390900;32;34684;-89
2021/06/02 12:16:07;;;;;;;4.25;2.62;;;;;;;24.14;29.86;100289.97;4406680;32;33080;-89
2021/06/02 12:18:42;;;;;;;3.90;2.60;;;;;;;24.24;30.78;100290.81;4407737;32;33356;-89
2021/06/02 12:21:22;;;;;;;6.55;2.00;;;;;;;24.33;30.72;100288.25;4392723;32;34300;-91
2021/06/02 12:24:12;;;;;;;7.07;3.10;;;;;;;24.37;30.07;100289.69;4389745;32;34996;-90
2021/06/02 12:26:43;;;;;;;4.12;2.30;;;;;;;24.42;30.30;100282.88;4407745;32;33756;-90